Time;durP1;ratioP1;P1;durP2;ratioP2;P2;SDS_P1;SDS_P2;PMS_P1;PMS_P2;Temp;Humidity;BMP_temperature;BMP_pressure;BME280_temperature;BME280_humidity;BME280_pressure;Samples;Min_cycle;Max_cycle;Signal;HPM_P1;HPM_P2
2022/05/21 00:00:20;;;;;;;;;;;;;;;20.32;53.61;100679.03;5005310;28;97397;-67
2022/05/21 00:02:46;;;;;;;;;;;;;;;20.43;53.38;100663.84;5005532;28;101076;-67
2022/05/21 00:05:13;;;;;;;;;;;;;;;19.99;53.97;100683.31;5004633;28;97693;-67
2022/05/21 00:07:39;;;;;;;;;;;;;;;20.03;54.18;100692.84;5003394;28;96788;-67
2022/05/21 00:10:07;;;;;;;;;;;;;;;20.23;53.83;100705.59;5008196;28;98705;-68
2022/05/21 00:12:34;;;;;;;;;;;;;;;20.08;53.64;100693.38;5001718;28;100879;-67
2022/05/21 00:15:02;;;;;;;;;;;;;;;20.55;52.46;100715.72;5007502;28;98662;-67
2022/05/21 00:17:28;;;;;;;;;;;;;;;19.70;53.58;100690.84;5008585;28;96985;-68
2022/05/21 00:19:54;;;;;;;;;;;;;;;19.60;54.00;100705.91;5001537;28;96878;-67
2022/05/21 00:22:20;;;;;;;;;;;;;;;19.21;54.68;100706.09;5003590;28;97829;-66
2022/05/21 00:24:47;;;;;;;;;;;;;;;19.42;53.93;100697.38;5000623;28;101175;-66
2022/05/21 00:27:13;;;;;;;;;;;;;;;19.83;53.66;100718.47;5004628;28;97377;-67
2022/05/21 00:29:40;;;;;;;;;;;;;;;19.69;53.35;100707.91;5004968;28;97013;-66
2022/05/21 00:32:07;;;;;;;;;;;;;;;19.87;52.89;100714.59;5003084;28;99250;-67
2022/05/21 00:34:34;;;;;;;;;;;;;;;20.25;51.96;100722.44;5007403;28;101490;-67
2022/05/21 00:37:01;;;;;;;;;;;;;;;20.23;52.86;100729.75;5003136;28;96950;-68
2022/05/21 00:39:27;;;;;;;;;;;;;;;19.96;53.37;100745.22;5005867;28;97142;-67
2022/05/21 00:41:53;;;;;;;;;;;;;;;19.93;52.39;100733.88;5001853;28;99226;-70
2022/05/21 00:44:20;;;;;;;;;;;;;;;19.67;53.14;100752.75;5005847;28;99247;-69
2022/05/21 00:46:47;;;;;;;;;;;;;;;19.18;54.69;100760.72;5003312;28;97112;-68
2022/05/21 00:49:17;;;;;;;;;;;;;;;19.57;53.88;100761.56;5003302;28;96975;-68
2022/05/21 00:51:45;;;;;;;;;;;;;;;19.82;53.23;100758.81;5005493;28;101204;-67
2022/05/21 00:54:12;;;;;;;;;;;;;;;19.86;52.91;100771.03;5004417;28;102013;-67
2022/05/21 00:56:43;;;;;;;;;;;;;;;19.76;52.72;100792.28;5002466;28;96965;-66
2022/05/21 01:01:55;;;;;;;;;;;;;;;18.77;55.48;100794.91;4999463;28;97239;-69
2022/05/21 01:04:23;;;;;;;;;;;;;;;19.06;53.96;100801.78;5009054;28;98653;-69
2022/05/21 01:06:49;;;;;;;;;;;;;;;19.51;53.24;100808.41;4999760;28;98740;-69
2022/05/21 01:09:16;;;;;;;;;;;;;;;19.40;53.36;100806.47;5006650;28;97108;-72
2022/05/21 01:11:42;;;;;;;;;;;;;;;19.08;54.02;100810.56;5000592;28;99262;-73
2022/05/21 01:14:10;;;;;;;;;;;;;;;18.86;54.71;100819.22;5004524;28;100349;-73
2022/05/21 01:16:37;;;;;;;;;;;;;;;18.93;54.02;100830.38;5001554;28;98503;-67
2022/05/21 01:19:05;;;;;;;;;;;;;;;18.94;53.88;100829.41;5007644;28;96864;-67
2022/05/21 01:21:32;;;;;;;;;;;;;;;18.70;54.05;100835.50;4999504;28;99247;-67
2022/05/21 01:24:00;;;;;;;;;;;;;;;18.93;53.50;100822.34;5007406;28;98889;-69
2022/05/21 01:26:27;;;;;;;;;;;;;;;19.15;52.98;100844.00;5003331;28;96778;-67
2022/05/21 01:28:53;;;;;;;;;;;;;;;18.99;52.47;100848.69;5004238;28;96852;-68
2022/05/21 01:31:20;;;;;;;;;;;;;;;18.91;52.53;100856.38;5004872;28;98849;-67
2022/05/21 01:33:46;;;;;;;;;;;;;;;18.91;52.68;100859.06;5010035;28;99081;-67
2022/05/21 01:36:14;;;;;;;;;;;;;;;18.76;53.00;100860.13;5003075;28;97031;-67
2022/05/21 01:38:41;;;;;;;;;;;;;;;18.99;52.33;100851.38;5011671;28;96831;-66
2022/05/21 01:41:09;;;;;;;;;;;;;;;18.44;54.56;100847.06;5007498;28;99212;-67
2022/05/21 01:46:20;;;;;;;;;;;;;;;18.67;53.04;100861.59;5003980;28;97933;-67
2022/05/21 01:48:47;;;;;;;;;;;;;;;18.95;52.83;100865.94;5004117;28;97424;-67
2022/05/21 01:51:13;;;;;;;;;;;;;;;18.76;53.17;100838.72;5005204;28;99014;-68
2022/05/21 01:53:40;;;;;;;;;;;;;;;18.70;53.54;100867.63;5007656;28;100834;-67
2022/05/21 01:56:07;;;;;;;;;;;;;;;18.96;52.94;100873.00;5005427;28;96805;-67
2022/05/21 01:58:34;;;;;;;;;;;;;;;18.14;54.48;100847.25;5004928;28;97021;-67
2022/05/21 02:01:01;;;;;;;;;;;;;;;18.53;54.16;100878.53;5002370;28;102927;-67
2022/05/21 02:03:28;;;;;;;;;;;;;;;18.45;54.24;100880.00;5006597;28;101163;-66
2022/05/21 02:05:54;;;;;;;;;;;;;;;18.20;54.88;100892.31;5003339;28;97833;-66
2022/05/21 02:08:20;;;;;;;;;;;;;;;18.50;54.61;100885.91;5002472;28;96966;-67
2022/05/21 02:10:47;;;;;;;;;;;;;;;17.85;56.01;100891.03;5004613;28;99029;-66
2022/05/21 02:13:15;;;;;;;;;;;;;;;17.95;55.74;100905.53;4998710;28;100636;-67
2022/05/21 02:15:42;;;;;;;;;;;;;;;17.98;55.72;100909.84;5002433;28;96956;-66
2022/05/21 02:18:08;;;;;;;;;;;;;;;17.70;56.39;100905.38;5003211;28;96843;-66
2022/05/21 02:20:35;;;;;;;;;;;;;;;18.13;55.43;100888.31;5002954;28;99099;-66
2022/05/21 02:23:01;;;;;;;;;;;;;;;17.78;55.69;100922.66;5006055;28;99053;-66
2022/05/21 02:25:27;;;;;;;;;;;;;;;17.37;56.66;100903.78;5007706;28;96859;-68
2022/05/21 02:27:54;;;;;;;;;;;;;;;18.25;55.19;100921.41;5010702;28;97277;-68
2022/05/21 02:30:20;;;;;;;;;;;;;;;18.52;53.76;100918.75;4999129;28;101917;-67
2022/05/21 02:32:48;;;;;;;;;;;;;;;18.46;53.55;100928.06;5006764;28;99343;-66
2022/05/21 02:35:15;;;;;;;;;;;;;;;18.74;52.94;100934.31;5006605;28;96854;-67
2022/05/21 02:40:25;;;;;;;;;;;;;;;19.32;51.24;100936.59;5002761;28;97620;-66
2022/05/21 02:42:52;;;;;;;;;;;;;;;18.96;52.31;100939.97;5000564;28;100511;-66
2022/05/21 02:45:19;;;;;;;;;;;;;;;19.15;51.71;100935.06;5004516;28;97773;-67
2022/05/21 02:47:46;;;;;;;;;;;;;;;18.84;52.44;100948.81;5000900;28;96927;-66
2022/05/21 02:50:15;;;;;;;;;;;;;;;19.23;51.69;100955.97;5004877;28;98931;-66
2022/05/21 02:52:42;;;;;;;;;;;;;;;18.89;52.18;100960.94;5005056;28;97615;-68
2022/05/21 02:55:09;;;;;;;;;;;;;;;18.84;52.11;100962.19;5003664;28;96896;-67
2022/05/21 02:57:36;;;;;;;;;;;;;;;19.08;51.57;100969.44;4997578;28;96992;-68
2022/05/21 03:00:03;;;;;;;;;;;;;;;18.65;51.33;100971.41;5003050;28;101254;-67
2022/05/21 03:02:31;;;;;;;;;;;;;;;18.71;51.48;100979.03;5009831;28;101285;-67
2022/05/21 03:04:57;;;;;;;;;;;;;;;18.18;52.58;100970.94;5004948;28;97665;-68
2022/05/21 03:07:25;;;;;;;;;;;;;;;18.75;51.48;100981.53;5003647;28;96863;-67
2022/05/21 03:12:43;;;;;;;;;;;;;;;18.94;50.36;100995.44;4973135;28;98547;-68
2022/05/21 03:15:10;;;;;;;;;;;;;;;18.95;49.88;100981.09;5003060;28;96928;-68
2022/05/21 03:17:36;;;;;;;;;;;;;;;18.39;51.45;101001.66;5004008;28;96877;-68
2022/05/21 03:20:04;;;;;;;;;;;;;;;18.25;51.00;101007.88;5007322;28;101147;-68
2022/05/21 03:22:31;;;;;;;;;;;;;;;17.71;52.57;101020.19;5001769;28;98707;-68
2022/05/21 03:24:58;;;;;;;;;;;;;;;18.12;51.81;101024.78;5006960;28;96936;-68
2022/05/21 03:27:25;;;;;;;;;;;;;;;18.37;51.36;101030.34;5005522;28;98524;-67
2022/05/21 03:29:52;;;;;;;;;;;;;;;17.76;51.96;101026.09;5007857;28;97281;-67
2022/05/21 03:32:18;;;;;;;;;;;;;;;17.58;52.62;101035.22;5003987;28;100734;-75
2022/05/21 03:34:45;;;;;;;;;;;;;;;18.09;50.94;101033.88;5003193;28;96833;-74
2022/05/21 03:37:11;;;;;;;;;;;;;;;18.00;50.98;101033.56;5002440;28;96964;-74
2022/05/21 03:39:39;;;;;;;;;;;;;;;17.27;52.85;101024.59;5001257;28;99038;-74
2022/05/21 03:42:06;;;;;;;;;;;;;;;17.37;52.19;101041.81;5003680;28;98780;-74
2022/05/21 03:44:32;;;;;;;;;;;;;;;17.65;51.77;101046.44;5006277;28;97794;-74
2022/05/21 03:46:59;;;;;;;;;;;;;;;17.41;52.29;101052.22;5006865;28;98038;-75
2022/05/21 03:49:26;;;;;;;;;;;;;;;17.83;51.75;101059.53;5000139;28;99257;-75
2022/05/21 03:51:52;;;;;;;;;;;;;;;17.18;53.06;101058.06;5006702;28;99009;-75
2022/05/21 03:54:19;;;;;;;;;;;;;;;17.33;52.74;101072.31;5005588;28;97031;-74
2022/05/21 03:56:46;;;;;;;;;;;;;;;17.03;53.30;101059.81;5002747;28;97524;-74
2022/05/21 03:59:13;;;;;;;;;;;;;;;17.33;52.86;101078.53;5000645;28;97054;-74
2022/05/21 04:01:41;;;;;;;;;;;;;;;17.55;52.50;101078.13;5002057;28;97542;-67
2022/05/21 04:04:07;;;;;;;;;;;;;;;16.80;53.95;101086.94;4997637;28;96723;-67
2022/05/21 04:06:34;;;;;;;;;;;;;;;17.38;52.72;101087.16;5004112;28;97411;-68
2022/05/21 04:09:00;;;;;;;;;;;;;;;17.42;52.63;101098.50;5003206;28;97769;-68
2022/05/21 04:11:27;;;;;;;;;;;;;;;17.25;52.58;101111.97;4998885;28;99136;-66
2022/05/21 04:13:54;;;;;;;;;;;;;;;17.02;52.66;101100.78;5001769;28;96796;-66
2022/05/21 04:16:21;;;;;;;;;;;;;;;17.29;52.32;101122.38;5002671;28;96873;-66
2022/05/21 04:18:47;;;;;;;;;;;;;;;17.01;52.81;101136.44;5000504;28;101232;-68
2022/05/21 04:21:13;;;;;;;;;;;;;;;16.69;53.40;101124.88;5003280;28;99430;-68
2022/05/21 04:23:39;;;;;;;;;;;;;;;17.32;51.69;101130.25;5002952;28;96886;-67
2022/05/21 04:26:06;;;;;;;;;;;;;;;17.68;50.52;101140.63;5004385;28;96823;-73
2022/05/21 04:28:32;;;;;;;;;;;;;;;17.71;49.73;101140.47;5003691;28;99032;-74
2022/05/21 04:30:59;;;;;;;;;;;;;;;17.81;49.34;101146.97;5005556;28;98794;-75
2022/05/21 04:33:28;;;;;;;;;;;;;;;17.90;48.67;101150.91;5009258;28;97347;-74
2022/05/21 04:38:39;;;;;;;;;;;;;;;18.06;47.29;101161.53;5007524;28;97275;-73
2022/05/21 04:41:05;;;;;;;;;;;;;;;17.98;47.63;101175.41;5002905;28;98791;-73
2022/05/21 04:43:31;;;;;;;;;;;;;;;18.39;47.55;101180.91;5003555;28;97013;-74
2022/05/21 04:45:57;;;;;;;;;;;;;;;18.63;46.69;101184.81;5002589;28;98641;-74
2022/05/21 04:48:25;;;;;;;;;;;;;;;17.92;47.96;101184.63;5003063;28;99184;-77
2022/05/21 04:50:51;;;;;;;;;;;;;;;18.32;47.48;101200.94;5005141;28;98922;-73
2022/05/21 04:53:17;;;;;;;;;;;;;;;18.33;47.36;101197.31;5007265;28;98895;-73
2022/05/21 04:55:44;;;;;;;;;;;;;;;17.38;49.24;101198.47;5008648;28;96965;-74
2022/05/21 04:58:10;;;;;;;;;;;;;;;17.39;49.89;101205.56;5010938;28;101255;-74
2022/05/21 05:00:36;;;;;;;;;;;;;;;17.83;48.83;101205.69;5009511;28;98075;-73
2022/05/21 05:03:03;;;;;;;;;;;;;;;17.95;48.50;101221.00;5009794;28;96778;-73
2022/05/21 05:05:30;;;;;;;;;;;;;;;18.70;47.00;101218.28;5005340;28;97144;-73
2022/05/21 05:07:57;;;;;;;;;;;;;;;17.73;48.21;101224.06;5005006;28;98266;-73
2022/05/21 05:10:23;;;;;;;;;;;;;;;18.12;48.31;101215.53;5000389;28;101038;-73
2022/05/21 05:12:50;;;;;;;;;;;;;;;18.40;47.38;101225.44;5004487;28;97005;-74
2022/05/21 05:15:16;;;;;;;;;;;;;;;18.17;47.48;101220.63;5006629;28;96946;-74
2022/05/21 05:17:42;;;;;;;;;;;;;;;18.27;47.47;101224.44;5004833;28;100412;-75
2022/05/21 05:20:09;;;;;;;;;;;;;;;18.07;47.32;101224.78;5007237;28;98777;-74
2022/05/21 05:22:36;;;;;;;;;;;;;;;18.60;46.19;101230.47;5008144;28;98542;-74
2022/05/21 05:25:04;;;;;;;;;;;;;;;18.13;47.35;101232.44;5000719;28;98535;-75
2022/05/21 05:27:30;;;;;;;;;;;;;;;18.05;47.26;101229.38;5004761;28;98896;-73
2022/05/21 05:29:56;;;;;;;;;;;;;;;18.35;46.15;101238.25;5007486;28;98723;-68
2022/05/21 05:32:23;;;;;;;;;;;;;;;17.45;48.12;101237.25;5002019;28;97678;-68
2022/05/21 05:34:49;;;;;;;;;;;;;;;17.74;47.51;101233.81;5001186;28;97528;-67
2022/05/21 05:37:15;;;;;;;;;;;;;;;17.70;47.36;101250.97;5007089;28;98857;-67
2022/05/21 05:39:43;;;;;;;;;;;;;;;17.91;46.83;101249.75;5005669;28;98002;-68
2022/05/21 05:42:09;;;;;;;;;;;;;;;17.98;46.44;101252.06;5004576;28;97469;-68
2022/05/21 05:44:36;;;;;;;;;;;;;;;17.91;46.59;101247.09;5000665;28;96900;-68
2022/05/21 05:47:02;;;;;;;;;;;;;;;16.87;48.53;101251.09;5005030;28;98964;-68
2022/05/21 05:49:28;;;;;;;;;;;;;;;17.66;47.28;101249.41;5002665;28;99094;-67
2022/05/21 05:51:54;;;;;;;;;;;;;;;18.47;45.47;101248.19;5001611;28;97514;-67
2022/05/21 05:54:21;;;;;;;;;;;;;;;18.21;45.35;101235.53;5004067;28;98853;-68
2022/05/21 05:56:49;;;;;;;;;;;;;;;18.66;44.40;101251.50;5005883;28;99726;-69
2022/05/21 06:04:40;;;;;;;;;;;;;;;19.15;43.16;101266.38;5010230;28;97001;-69
2022/05/21 06:07:12;;;;;;;;;;;;;;;18.43;44.31;101252.03;5004110;28;99437;-67
2022/05/21 06:09:38;;;;;;;;;;;;;;;19.15;43.14;101264.56;4998552;28;101150;-68
2022/05/21 06:12:08;;;;;;;;;;;;;;;18.38;44.45;101262.13;4999839;28;99668;-68
2022/05/21 06:14:35;;;;;;;;;;;;;;;18.02;45.25;101261.63;5004292;28;98488;-68
2022/05/21 06:17:01;;;;;;;;;;;;;;;18.60;44.12;101265.28;4997343;28;99045;-67
2022/05/21 06:19:28;;;;;;;;;;;;;;;18.70;44.02;101271.81;5002097;28;98349;-67
2022/05/21 06:21:56;;;;;;;;;;;;;;;19.29;42.35;101274.41;4995794;28;96840;-67
2022/05/21 06:24:22;;;;;;;;;;;;;;;19.08;42.85;101281.97;4997599;28;97667;-67
2022/05/21 06:26:49;;;;;;;;;;;;;;;18.86;43.17;101282.41;4998533;28;99300;-66
2022/05/21 06:29:17;;;;;;;;;;;;;;;19.32;42.07;101288.44;5002122;28;99085;-69
2022/05/21 06:31:43;;;;;;;;;;;;;;;19.42;42.43;101278.88;4998582;28;96786;-68
2022/05/21 06:34:10;;;;;;;;;;;;;;;18.61;43.18;101271.50;4996054;28;97806;-67
2022/05/21 06:36:36;;;;;;;;;;;;;;;17.82;45.25;101278.81;4998563;28;99740;-68
2022/05/21 06:39:03;;;;;;;;;;;;;;;18.48;43.54;101286.53;4998328;28;101826;-67
2022/05/21 06:41:31;;;;;;;;;;;;;;;18.03;44.87;101282.94;4998789;28;97236;-68
2022/05/21 06:43:57;;;;;;;;;;;;;;;19.06;43.36;101289.22;5002757;28;96982;-68
2022/05/21 06:46:25;;;;;;;;;;;;;;;19.27;42.93;101290.56;4997352;28;98862;-69
2022/05/21 06:48:51;;;;;;;;;;;;;;;19.46;42.96;101287.59;4999941;28;99080;-74
2022/05/21 06:51:18;;;;;;;;;;;;;;;19.06;43.50;101294.56;4999800;28;99074;-74
2022/05/21 06:53:44;;;;;;;;;;;;;;;19.26;42.81;101288.84;4997978;28;97458;-75
2022/05/21 06:56:13;;;;;;;;;;;;;;;18.45;44.13;101290.22;4996389;28;97659;-75
2022/05/21 06:58:39;;;;;;;;;;;;;;;19.26;41.82;101280.78;5002005;28;98733;-75
2022/05/21 07:01:06;;;;;;;;;;;;;;;19.15;43.14;101287.78;5003115;28;98512;-73
2022/05/21 07:03:33;;;;;;;;;;;;;;;18.69;42.51;101290.63;5005902;28;96743;-73
2022/05/21 07:08:43;;;;;;;;;;;;;;;19.52;41.86;101292.56;4999599;28;97099;-74
2022/05/21 07:11:13;;;;;;;;;;;;;;;19.43;41.41;101293.13;5004481;28;96855;-74
2022/05/21 07:13:39;;;;;;;;;;;;;;;19.42;41.91;101305.69;5001878;28;97318;-73
2022/05/21 07:16:06;;;;;;;;;;;;;;;20.12;40.17;101308.31;5006229;28;100192;-75
2022/05/21 07:18:34;;;;;;;;;;;;;;;19.38;41.23;101314.00;5007990;28;101717;-75
2022/05/21 07:21:01;;;;;;;;;;;;;;;18.71;42.45;101305.63;5006173;28;97758;-75
2022/05/21 07:23:28;;;;;;;;;;;;;;;18.84;42.28;101315.63;5006063;28;97364;-73
2022/05/21 07:25:56;;;;;;;;;;;;;;;19.09;42.15;101311.34;5001256;28;99400;-73
2022/05/21 07:28:22;;;;;;;;;;;;;;;19.01;41.86;101312.75;5003615;28;97882;-74
2022/05/21 07:30:49;;;;;;;;;;;;;;;19.58;41.32;101310.94;5011198;28;97370;-73
2022/05/21 07:33:16;;;;;;;;;;;;;;;19.84;40.60;101312.81;5006252;28;97255;-72
2022/05/21 07:35:44;;;;;;;;;;;;;;;20.63;39.16;101303.97;5006565;28;98066;-74
2022/05/21 07:38:11;;;;;;;;;;;;;;;19.72;40.73;101310.06;4997758;28;98699;-74
2022/05/21 07:40:38;;;;;;;;;;;;;;;20.67;39.63;101295.59;4997746;28;96941;-73
2022/05/21 07:43:11;;;;;;;;;;;;;;;20.89;38.95;101292.28;5003321;28;98573;-73
2022/05/21 07:45:39;;;;;;;;;;;;;;;21.66;37.89;101285.84;4995804;28;99537;-73
2022/05/21 07:48:05;;;;;;;;;;;;;;;21.84;37.63;101279.13;5000474;28;98396;-75
2022/05/21 07:50:33;;;;;;;;;;;;;;;21.59;37.77;101275.69;5008685;28;96735;-74
2022/05/21 07:53:01;;;;;;;;;;;;;;;21.81;37.73;101282.03;5007198;28;96820;-73
2022/05/21 07:55:27;;;;;;;;;;;;;;;21.59;38.32;101278.38;5000411;28;98988;-74
2022/05/21 07:57:53;;;;;;;;;;;;;;;20.46;40.55;101283.66;5000911;28;99922;-75
2022/05/21 08:00:20;;;;;;;;;;;;;;;21.25;38.93;101282.63;5001283;28;97222;-73
2022/05/21 08:02:46;;;;;;;;;;;;;;;21.76;38.74;101276.16;5004981;28;96932;-74
2022/05/21 08:05:13;;;;;;;;;;;;;;;21.01;39.88;101261.00;5002751;28;98094;-74
2022/05/21 08:07:39;;;;;;;;;;;;;;;21.25;39.88;101274.56;4994408;28;100813;-74
2022/05/21 08:10:07;;;;;;;;;;;;;;;21.15;39.88;101268.94;5006427;28;96988;-75
2022/05/21 08:12:34;;;;;;;;;;;;;;;21.28;39.63;101274.31;5000395;28;98939;-76
2022/05/21 08:15:00;;;;;;;;;;;;;;;21.60;38.85;101269.31;4995232;28;98862;-75
2022/05/21 08:17:26;;;;;;;;;;;;;;;21.85;38.62;101251.25;5003817;28;101892;-76
2022/05/21 08:19:53;;;;;;;;;;;;;;;22.52;37.89;101272.22;4996345;28;98838;-77
2022/05/21 08:27:49;;;;;;;;;;;;;;;21.93;38.17;101272.19;5001777;28;98061;-80
2022/05/21 08:30:18;;;;;;;;;;;;;;;22.08;37.68;101262.16;5001209;28;96984;-77
2022/05/21 08:32:50;;;;;;;;;;;;;;;22.46;37.31;101260.09;4998592;28;97287;-71
2022/05/21 08:35:17;;;;;;;;;;;;;;;22.64;37.05;101255.97;4995106;28;98694;-71
2022/05/21 08:37:43;;;;;;;;;;;;;;;22.73;36.70;101249.03;5001192;28;97811;-71
2022/05/21 08:40:15;;;;;;;;;;;;;;;22.08;37.78;101260.31;5002952;28;98252;-71
2022/05/21 08:42:43;;;;;;;;;;;;;;;21.44;39.06;101261.50;5002690;28;97637;-71
2022/05/21 08:45:17;;;;;;;;;;;;;;;22.35;37.96;101248.44;4995671;28;101997;-71
2022/05/21 08:47:45;;;;;;;;;;;;;;;22.19;38.25;101248.72;4998024;28;99069;-71
2022/05/21 08:50:14;;;;;;;;;;;;;;;21.87;38.79;101260.06;4994482;28;97806;-72
2022/05/21 08:52:43;;;;;;;;;;;;;;;21.53;39.86;101260.00;5003233;28;98832;-72
2022/05/21 08:55:11;;;;;;;;;;;;;;;21.18;40.68;101281.34;4998281;28;101461;-71
2022/05/21 08:57:42;;;;;;;;;;;;;;;20.96;42.23;101285.50;5002659;28;101135;-73
2022/05/21 09:00:12;;;;;;;;;;;;;;;20.37;45.31;101296.81;5001952;28;97455;-71
2022/05/21 09:02:40;;;;;;;;;;;;;;;20.72;46.36;101289.91;5006284;28;97361;-74
2022/05/21 09:05:09;;;;;;;;;;;;;;;20.59;46.55;101289.91;5002269;28;98420;-75
2022/05/21 09:10:46;;;;;;;;;;;;;;;20.13;47.31;101305.53;4983966;28;97287;-76
2022/05/21 09:13:16;;;;;;;;;;;;;;;21.22;45.84;101301.66;4996951;28;97402;-75
2022/05/21 09:18:30;;;;;;;;;;;;;;;21.32;44.51;101287.47;5004808;28;97016;-75
2022/05/21 09:20:59;;;;;;;;;;;;;;;20.72;45.70;101302.47;4994554;28;97413;-75
2022/05/21 09:23:25;;;;;;;;;;;;;;;20.86;45.04;101297.00;4996116;28;97700;-75
2022/05/21 09:26:04;;;;;;;;;;;;;;;19.94;46.59;101314.88;4999860;28;98679;-74
2022/05/21 09:28:30;;;;;;;;;;;;;;;20.50;45.42;101301.25;5006210;28;100714;-75
2022/05/21 09:30:58;;;;;;;;;;;;;;;20.35;45.24;101304.13;5002580;28;96891;-76
2022/05/21 09:33:26;;;;;;;;;;;;;;;20.53;45.42;101302.88;5005604;28;96917;-79
2022/05/21 09:35:55;;;;;;;;;;;;;;;20.82;44.27;101296.34;4993804;28;97926;-74
2022/05/21 09:38:23;;;;;;;;;;;;;;;20.41;45.38;101303.72;4997045;28;101112;-74
2022/05/21 09:40:49;;;;;;;;;;;;;;;20.05;45.62;101313.22;4999371;28;97792;-74
2022/05/21 09:46:15;;;;;;;;;;;;;;;20.86;44.20;101302.38;4999320;28;96842;-68
2022/05/21 09:48:41;;;;;;;;;;;;;;;20.58;44.04;101296.22;4998991;28;97692;-67
2022/05/21 09:51:21;;;;;;;;;;;;;;;20.57;44.22;101304.38;4997238;28;96795;-68
2022/05/21 09:53:47;;;;;;;;;;;;;;;20.99;43.38;101301.44;5005234;28;97157;-68
2022/05/21 09:56:18;;;;;;;;;;;;;;;21.48;42.90;101300.63;5002672;28;99671;-68
2022/05/21 09:58:46;;;;;;;;;;;;;;;21.24;43.19;101311.31;5001099;28;98635;-68
2022/05/21 10:01:16;;;;;;;;;;;;;;;20.73;44.19;101302.38;5002500;28;98750;-67
2022/05/21 10:03:45;;;;;;;;;;;;;;;21.22;43.64;101304.31;4997794;28;97054;-70
2022/05/21 10:06:32;;;;;;;;;;;;;;;21.96;41.88;101293.53;5001725;28;96966;-67
2022/05/21 10:11:51;;;;;;;;;;;;;;;22.14;41.32;101291.28;5001562;28;96945;-67
2022/05/21 10:14:20;;;;;;;;;;;;;;;22.65;40.26;101295.38;4999384;28;96834;-68
2022/05/21 10:16:49;;;;;;;;;;;;;;;22.64;39.64;101282.91;4999142;28;97747;-68
2022/05/21 10:19:19;;;;;;;;;;;;;;;21.05;42.15;101284.88;5002221;28;99091;-68
2022/05/21 10:21:52;;;;;;;;;;;;;;;21.78;41.21;101287.66;5005534;28;96823;-68
2022/05/21 10:24:23;;;;;;;;;;;;;;;21.57;41.73;101297.28;5001889;28;96878;-68
2022/05/21 10:26:57;;;;;;;;;;;;;;;21.93;40.67;101292.84;5005276;28;99396;-68
2022/05/21 10:29:35;;;;;;;;;;;;;;;21.76;40.14;101286.03;4997584;28;97428;-69
2022/05/21 10:32:07;;;;;;;;;;;;;;;22.53;39.13;101282.88;5006470;28;96883;-70
2022/05/21 10:34:44;;;;;;;;;;;;;;;22.87;38.90;101285.69;4998326;28;96899;-68
2022/05/21 10:37:17;;;;;;;;;;;;;;;21.72;40.61;101271.97;5006048;28;99201;-68
2022/05/21 10:40:07;;;;;;;;;;;;;;;21.53;40.95;101263.50;4998129;28;102363;-67
2022/05/21 10:42:39;;;;;;;;;;;;;;;22.55;39.43;101264.78;4994950;28;96843;-69
2022/05/21 10:45:14;;;;;;;;;;;;;;;22.74;38.71;101256.16;4999760;28;97468;-69
2022/05/21 10:47:58;;;;;;;;;;;;;;;23.11;37.84;101256.78;4997196;28;98797;-69
2022/05/21 10:50:28;;;;;;;;;;;;;;;23.09;37.33;101247.13;5008874;28;98036;-69
2022/05/21 10:53:04;;;;;;;;;;;;;;;21.69;39.75;101249.81;5005404;28;96904;-69
2022/05/21 10:55:37;;;;;;;;;;;;;;;21.85;39.76;101243.19;5000525;28;96820;-68
2022/05/21 10:58:17;;;;;;;;;;;;;;;21.82;39.02;101253.31;4996232;28;99012;-69
2022/05/21 11:00:50;;;;;;;;;;;;;;;21.74;39.42;101258.38;4997377;28;97491;-68
2022/05/21 11:03:34;;;;;;;;;;;;;;;21.63;39.58;101272.63;4996552;28;96983;-69
2022/05/21 11:06:11;;;;;;;;;;;;;;;21.74;39.41;101267.31;4991661;28;96936;-68
2022/05/21 11:08:42;;;;;;;;;;;;;;;22.34;38.44;101260.16;5003047;28;99148;-69
2022/05/21 11:11:11;;;;;;;;;;;;;;;21.44;39.90;101266.88;4995663;28;102240;-68
2022/05/21 11:13:41;;;;;;;;;;;;;;;21.64;39.59;101255.53;4994764;28;97254;-68
2022/05/21 11:16:12;;;;;;;;;;;;;;;21.73;38.58;101249.47;4996322;28;97448;-68
2022/05/21 11:18:42;;;;;;;;;;;;;;;22.38;37.72;101245.50;4995845;28;99000;-68
2022/05/21 11:21:12;;;;;;;;;;;;;;;21.68;38.80;101240.88;4990673;28;99150;-68
2022/05/21 11:23:40;;;;;;;;;;;;;;;21.42;39.49;101233.88;4993648;28;97495;-68
2022/05/21 11:26:11;;;;;;;;;;;;;;;21.92;39.04;101245.44;4996495;28;97107;-69
2022/05/21 11:28:43;;;;;;;;;;;;;;;21.65;39.13;101232.19;4994437;28;98922;-68
2022/05/21 11:31:13;;;;;;;;;;;;;;;22.37;37.82;101233.88;4995578;28;98396;-69
2022/05/21 11:39:12;;;;;;;;;;;;;;;23.41;36.29;101248.94;4995908;28;97370;-68
2022/05/21 11:42:00;;;;;;;;;;;;;;;22.78;37.02;101233.38;4991940;28;102322;-68
2022/05/21 11:47:33;;;;;;;;;;;;;;;24.28;34.62;101224.69;4997687;28;96860;-69
2022/05/21 11:50:07;;;;;;;;;;;;;;;22.70;37.49;101230.41;4989442;28;100319;-71
2022/05/21 11:52:47;;;;;;;;;;;;;;;22.52;38.09;101242.59;4994054;28;97786;-68
2022/05/21 11:55:14;;;;;;;;;;;;;;;21.82;39.00;101226.41;4995331;28;96877;-67
2022/05/21 11:57:42;;;;;;;;;;;;;;;22.74;37.86;101231.03;4995457;28;98562;-68
2022/05/21 12:00:30;;;;;;;;;;;;;;;22.21;38.46;101233.34;4990709;28;99434;-69
2022/05/21 12:03:12;;;;;;;;;;;;;;;21.68;39.64;101237.31;4997019;28;99002;-68
2022/05/21 12:05:58;;;;;;;;;;;;;;;21.53;39.81;101233.09;5000522;28;97361;-69
2022/05/21 12:08:36;;;;;;;;;;;;;;;21.66;39.30;101247.38;4995247;28;97505;-69
2022/05/21 12:11:07;;;;;;;;;;;;;;;21.40;39.67;101246.56;4997394;28;99668;-69
2022/05/21 12:13:49;;;;;;;;;;;;;;;21.70;38.98;101244.31;5002937;28;97918;-68
2022/05/21 12:16:40;;;;;;;;;;;;;;;22.12;38.85;101261.78;5001941;28;97299;-68
2022/05/21 12:19:08;;;;;;;;;;;;;;;21.45;39.81;101269.47;4983920;28;97112;-68
2022/05/21 12:21:53;;;;;;;;;;;;;;;21.02;40.81;101254.66;4995716;28;98944;-67
2022/05/21 12:24:36;;;;;;;;;;;;;;;22.03;38.50;101246.34;4994940;28;98997;-67
2022/05/21 12:27:05;;;;;;;;;;;;;;;22.17;38.77;101253.38;4993483;28;98208;-67
2022/05/21 12:29:33;;;;;;;;;;;;;;;21.33;39.94;101261.44;5000349;28;96865;-69
2022/05/21 12:32:01;;;;;;;;;;;;;;;21.58;40.22;101271.25;5001979;28;98806;-68
2022/05/21 12:34:48;;;;;;;;;;;;;;;21.90;39.33;101256.28;5004506;28;97611;-69
2022/05/21 12:37:18;;;;;;;;;;;;;;;22.09;39.54;101256.66;4978335;28;97061;-69
2022/05/21 12:39:59;;;;;;;;;;;;;;;22.65;38.28;101254.97;4999925;28;97251;-69
2022/05/21 12:42:31;;;;;;;;;;;;;;;23.38;36.61;101248.31;4997927;28;98856;-67
2022/05/21 12:44:57;;;;;;;;;;;;;;;22.73;37.50;101245.47;4999376;28;99397;-67
2022/05/21 12:47:28;;;;;;;;;;;;;;;22.84;37.31;101240.13;4994200;28;98412;-67
2022/05/21 12:49:54;;;;;;;;;;;;;;;22.90;36.97;101248.59;4995256;28;97683;-68
2022/05/21 12:52:23;;;;;;;;;;;;;;;23.74;35.34;101242.66;5000009;28;99433;-68
2022/05/21 12:54:50;;;;;;;;;;;;;;;23.31;35.08;101233.59;4998859;28;99249;-68
2022/05/21 12:57:17;;;;;;;;;;;;;;;23.69;34.48;101236.78;4999055;28;97388;-68
2022/05/21 12:59:43;;;;;;;;;;;;;;;23.64;34.60;101238.13;4995175;28;97058;-70
2022/05/21 13:02:12;;;;;;;;;;;;;;;24.62;33.78;101232.44;4993666;28;102111;-68
2022/05/21 13:04:41;;;;;;;;;;;;;;;23.86;33.96;101243.47;5000599;28;98214;-67
2022/05/21 13:07:11;;;;;;;;;;;;;;;23.16;35.90;101235.72;4996780;28;96935;-67
2022/05/21 13:09:49;;;;;;;;;;;;;;;24.57;33.66;101231.13;5001707;28;97224;-69
2022/05/21 13:12:16;;;;;;;;;;;;;;;24.26;33.31;101224.81;5001256;28;99889;-68
2022/05/21 13:14:43;;;;;;;;;;;;;;;25.20;32.08;101245.44;4995816;28;98819;-75
2022/05/21 13:17:19;;;;;;;;;;;;;;;23.96;33.28;101233.59;4996151;28;97247;-74
2022/05/21 13:19:54;;;;;;;;;;;;;;;22.75;35.73;101233.63;4998983;28;97065;-74
2022/05/21 13:22:25;;;;;;;;;;;;;;;23.16;35.34;101237.56;5001795;28;99336;-76
2022/05/21 13:24:57;;;;;;;;;;;;;;;22.94;36.44;101233.88;5000213;28;101011;-74
2022/05/21 13:27:24;;;;;;;;;;;;;;;23.83;34.97;101232.91;4998775;28;97106;-73
2022/05/21 13:29:52;;;;;;;;;;;;;;;24.61;33.55;101240.69;4994254;28;98784;-74